| time (UTC) | temp F | wind direction | speed knots | gust knots | rain 1hr in | rain 24hr in | rain mn in | humidity % | barometer mb |
| 20260510202613 | 68 | 129 | 0.0 | 0.9 | 0.00 | 0.00 | 0.00 | 63 | 1012.8 |
| 20260510202109 | 68 | 112 | 0.9 | 1.7 | 0.00 | 0.00 | 0.00 | 63 | 1012.9 |
| 20260510201606 | 67 | 159 | 0.0 | 0.9 | 0.00 | 0.00 | 0.00 | 70 | 1012.9 |
| 20260510201102 | 67 | 125 | 0.0 | 0.0 | 0.00 | 0.00 | 0.00 | 71 | 1013.1 |
| 20260510200559 | 68 | 122 | 0.0 | 0.0 | 0.00 | 0.00 | 0.00 | 70 | 1013.0 |
| 20260510200057 | 68 | 123 | 0.0 | 0.0 | 0.00 | 0.00 | 0.00 | 69 | 1012.9 |
| 20260510195554 | 68 | 118 | 0.0 | 0.0 | 0.00 | 0.00 | 0.00 | 69 | 1013.0 |
| 20260510195050 | 68 | 106 | 0.0 | 0.0 | 0.00 | 0.00 | 0.00 | 71 | 1012.8 |
| 20260510194545 | 68 | 127 | 0.0 | 0.0 | 0.00 | 0.00 | 0.00 | 70 | 1013.1 |
| 20260510194041 | 68 | 130 | 0.0 | 0.0 | 0.00 | 0.00 | 0.00 | 71 | 1012.9 |
| 20260510193536 | 69 | 119 | 0.0 | 0.0 | 0.00 | 0.00 | 0.00 | 73 | 1013.0 |
| 20260510193032 | 70 | 131 | 0.0 | 0.0 | 0.00 | 0.00 | 0.00 | 72 | 1012.9 |
| 20260510192532 | 70 | 121 | 0.0 | 0.9 | 0.00 | 0.00 | 0.00 | 72 | 1012.9 |
| 20260510192028 | 70 | 127 | 0.0 | 0.0 | 0.00 | 0.00 | 0.00 | 72 | 1013.0 |
| 20260510191525 | 71 | 119 | 0.0 | 0.0 | 0.00 | 0.00 | 0.00 | 71 | 1012.8 |
| 20260510191022 | 71 | 115 | 0.0 | 0.0 | 0.00 | 0.00 | 0.00 | 70 | 1012.8 |
| 20260510190519 | 70 | 115 | 0.0 | 0.0 | 0.00 | 0.00 | 0.00 | 73 | 1013.0 |
| 20260510190016 | 70 | 126 | 0.0 | 0.0 | 0.00 | 0.00 | 0.00 | 73 | 1012.9 |
| 20260510185512 | 70 | 129 | 0.0 | 0.0 | 0.00 | 0.00 | 0.00 | 72 | 1013.2 |
| 20260510185010 | 70 | 125 | 0.0 | 0.0 | 0.00 | 0.00 | 0.00 | 72 | 1013.4 |
| 20260510184507 | 70 | 115 | 0.0 | 0.0 | 0.00 | 0.00 | 0.00 | 75 | 1013.2 |
| 20260510184002 | 69 | 137 | 0.9 | 0.9 | 0.00 | 0.00 | 0.00 | 76 | 1013.4 |
| 20260510183458 | 69 | 95 | 0.0 | 0.0 | 0.00 | 0.00 | 0.00 | 76 | 1013.2 |
| 20260510182954 | 68 | 125 | 0.0 | 0.0 | 0.00 | 0.00 | 0.00 | 75 | 1013.3 |
| 20260510182450 | 68 | 132 | 0.0 | 0.0 | 0.00 | 0.00 | 0.00 | 78 | 1013.5 |
| 20260510181945 | 67 | 122 | 0.0 | 0.0 | 0.00 | 0.00 | 0.00 | 77 | 1013.5 |
| 20260510181444 | 67 | 129 | 0.0 | 0.0 | 0.00 | 0.00 | 0.00 | 77 | 1013.4 |
| 20260510180939 | 66 | 131 | 0.0 | 0.0 | 0.00 | 0.00 | 0.00 | 80 | 1013.3 |
| 20260510180437 | 66 | 122 | 0.0 | 0.0 | 0.00 | 0.00 | 0.00 | 80 | 1013.2 |
| 20260510175933 | 66 | 125 | 0.0 | 0.0 | 0.00 | 0.00 | 0.00 | 79 | 1013.1 |
| 20260510175429 | 66 | 121 | 0.0 | 0.0 | 0.00 | 0.00 | 0.00 | 79 | 1013.2 |
| 20260510174925 | 65 | 127 | 0.0 | 0.0 | 0.00 | 0.00 | 0.00 | 79 | 1013.0 |
| 20260510174424 | 66 | 121 | 0.0 | 0.0 | 0.00 | 0.00 | 0.00 | 79 | 1013.2 |
| 20260510173919 | 66 | 136 | 0.0 | 0.0 | 0.00 | 0.00 | 0.00 | 79 | 1013.5 |
| 20260510173415 | 66 | 114 | 0.0 | 0.0 | 0.00 | 0.00 | 0.00 | 79 | 1013.5 |
| 20260510172912 | 66 | 124 | 0.0 | 0.0 | 0.00 | 0.00 | 0.00 | 78 | 1013.3 |
| 20260510172408 | 67 | 115 | 0.0 | 0.0 | 0.00 | 0.00 | 0.00 | 77 | 1013.6 |
| 20260510171904 | 68 | 106 | 0.9 | 0.9 | 0.00 | 0.00 | 0.00 | 76 | 1013.4 |
| 20260510171402 | 67 | 130 | 0.0 | 0.0 | 0.00 | 0.00 | 0.00 | 77 | 1013.4 |
| 20260510170858 | 67 | 222 | 0.9 | 1.7 | 0.00 | 0.00 | 0.00 | 77 | 1013.3 |
| 20260510170355 | 67 | 349 | 0.9 | 0.9 | 0.00 | 0.00 | 0.00 | 77 | 1013.2 |
| 20260510165849 | 67 | 131 | 0.0 | 0.0 | 0.00 | 0.00 | 0.00 | 79 | 1013.5 |
| 20260510165346 | 67 | 87 | 0.9 | 0.9 | 0.00 | 0.00 | 0.00 | 77 | 1013.8 |
| 20260510164844 | 67 | 92 | 0.9 | 0.9 | 0.00 | 0.00 | 0.00 | 77 | 1013.6 |
| 20260510164341 | 66 | 126 | 0.0 | 0.0 | 0.00 | 0.00 | 0.00 | 79 | 1013.7 |
| 20260510163840 | 65 | 129 | 0.0 | 0.9 | 0.00 | 0.00 | 0.00 | 80 | 1013.5 |
| 20260510163338 | 65 | 126 | 0.9 | 0.9 | 0.00 | 0.00 | 0.00 | 81 | 1013.6 |
| 20260510162838 | 64 | 114 | 0.0 | 0.0 | 0.00 | 0.00 | 0.00 | 80 | 1013.5 |
| 20260510162335 | 64 | 141 | 0.0 | 0.0 | 0.00 | 0.00 | 0.00 | 82 | 1013.7 |
| 20260510161830 | 64 | 126 | 0.0 | 0.0 | 0.00 | 0.00 | 0.00 | 82 | 1013.6 |
| 20260510161327 | 64 | 168 | 1.7 | 1.7 | 0.00 | 0.00 | 0.00 | 83 | 1013.6 |
| 20260510160824 | 63 | 116 | 0.0 | 0.0 | 0.00 | 0.00 | 0.00 | 83 | 1013.6 |
| 20260510160315 | 63 | 146 | 0.9 | 0.9 | 0.00 | 0.00 | 0.00 | 84 | 1013.7 |
| 20260510155814 | 62 | 160 | 0.9 | 0.9 | 0.00 | 0.00 | 0.00 | 85 | 1014.0 |
| 20260510155311 | 62 | 117 | 0.0 | 0.0 | 0.00 | 0.00 | 0.00 | 86 | 1013.9 |
| 20260510154807 | 62 | 87 | 0.9 | 0.9 | 0.00 | 0.00 | 0.00 | 86 | 1013.9 |
| 20260510154303 | 61 | 111 | 0.0 | 0.0 | 0.00 | 0.00 | 0.00 | 87 | 1013.9 |
| 20260510153758 | 61 | 156 | 1.7 | 1.7 | 0.00 | 0.00 | 0.00 | 87 | 1013.7 |
| 20260510153254 | 60 | 180 | 1.7 | 2.6 | 0.00 | 0.00 | 0.00 | 88 | 1014.0 |
| 20260510152751 | 60 | 135 | 0.9 | 0.9 | 0.00 | 0.00 | 0.00 | 89 | 1013.8 |
| 20260510152247 | 60 | 114 | 0.0 | 0.0 | 0.00 | 0.00 | 0.00 | 89 | 1013.8 |
| 20260510151744 | 60 | 217 | 0.0 | 0.9 | 0.00 | 0.00 | 0.00 | 89 | 1013.9 |
| 20260510151243 | 59 | 164 | 1.7 | 1.7 | 0.00 | 0.00 | 0.00 | 91 | 1014.1 |
| 20260510150738 | 59 | 148 | 0.9 | 1.7 | 0.00 | 0.00 | 0.00 | 91 | 1014.0 |
| 20260510150234 | 58 | 111 | 0.0 | 0.0 | 0.00 | 0.00 | 0.00 | 92 | 1014.1 |
| 20260510145725 | 58 | 145 | 0.9 | 0.9 | 0.00 | 0.00 | 0.00 | 92 | 1014.2 |
| 20260510145221 | 57 | 120 | 0.0 | 0.0 | 0.00 | 0.00 | 0.00 | 94 | 1014.1 |
| 20260510144717 | 57 | 118 | 0.0 | 0.0 | 0.00 | 0.00 | 0.00 | 94 | 1013.9 |
| 20260510144214 | 57 | 117 | 0.0 | 0.0 | 0.00 | 0.00 | 0.00 | 95 | 1014.1 |
| 20260510143709 | 57 | 117 | 0.0 | 0.0 | 0.00 | 0.00 | 0.00 | 95 | 1014.1 |
| 20260510143205 | 56 | 168 | 0.0 | 0.0 | 0.00 | 0.00 | 0.00 | 96 | 1013.9 |
| 20260510142702 | 56 | 130 | 0.9 | 0.9 | 0.00 | 0.00 | 0.00 | 97 | 1014.2 |
| 20260510142158 | 56 | 120 | 0.0 | 0.0 | 0.00 | 0.00 | 0.00 | 98 | 1014.1 |
| 20260510141655 | 55 | 132 | 0.0 | 0.0 | 0.00 | 0.00 | 0.00 | 99 | 1013.8 |
| 20260510141154 | 55 | 174 | 0.0 | 0.9 | 0.00 | 0.00 | 0.00 | 99 | 1014.0 |
| 20260510140650 | 55 | 124 | 0.0 | 0.0 | 0.00 | 0.00 | 0.00 | 99 | 1013.9 |
| 20260510140149 | 55 | 108 | 0.0 | 0.0 | 0.00 | 0.00 | 0.00 | 99 | 1014.0 |
| 20260510135644 | 55 | 133 | 0.0 | 0.0 | 0.00 | 0.00 | 0.00 | 99 | 1013.9 |
| 20260510135141 | 55 | 121 | 0.0 | 0.0 | 0.00 | 0.00 | 0.00 | 99 | 1013.8 |
| 20260510134638 | 54 | 133 | 0.0 | 0.0 | 0.00 | 0.00 | 0.00 | 99 | 1013.8 |
| 20260510134135 | 54 | 152 | 0.0 | 0.0 | 0.00 | 0.00 | 0.00 | 99 | 1013.6 |
| 20260510133632 | 54 | 147 | 0.0 | 0.0 | 0.00 | 0.00 | 0.00 | 99 | 1013.7 |
| 20260510133126 | 54 | 118 | 0.0 | 0.0 | 0.00 | 0.00 | 0.00 | 99 | 1013.7 |
| 20260510132624 | 54 | 162 | 0.0 | 0.9 | 0.00 | 0.00 | 0.00 | 99 | 1013.6 |
| 20260510132121 | 54 | 132 | 0.0 | 0.0 | 0.00 | 0.00 | 0.00 | 99 | 1013.6 |
| 20260510131618 | 54 | 117 | 0.0 | 0.0 | 0.00 | 0.00 | 0.00 | 99 | 1013.8 |
| 20260510131115 | 54 | 131 | 0.0 | 0.0 | 0.00 | 0.00 | 0.00 | 99 | 1013.6 |
| 20260510130612 | 53 | 108 | 0.0 | 0.0 | 0.00 | 0.00 | 0.00 | 99 | 1013.4 |
| 20260510130110 | 53 | 127 | 0.0 | 0.0 | 0.00 | 0.00 | 0.00 | 99 | 1013.2 |
| 20260510125605 | 53 | 135 | 0.0 | 0.0 | 0.00 | 0.00 | 0.00 | 99 | 1013.3 |
| 20260510125102 | 53 | 130 | 0.0 | 0.0 | 0.00 | 0.00 | 0.00 | 99 | 1013.3 |
| 20260510124559 | 53 | 119 | 0.0 | 0.0 | 0.00 | 0.00 | 0.00 | 99 | 1013.5 |
| 20260510124056 | 53 | 128 | 0.0 | 0.0 | 0.00 | 0.00 | 0.00 | 99 | 1013.4 |
| 20260510123551 | 53 | 125 | 0.0 | 0.0 | 0.00 | 0.00 | 0.00 | 99 | 1013.4 |
| 20260510123047 | 53 | 121 | 0.0 | 0.0 | 0.00 | 0.00 | 0.00 | 99 | 1013.4 |
| 20260510122543 | 53 | 118 | 0.0 | 0.0 | 0.00 | 0.00 | 0.00 | 99 | 1013.1 |
| 20260510122039 | 53 | 124 | 0.0 | 0.0 | 0.00 | 0.00 | 0.00 | 99 | 1013.1 |
| 20260510121537 | 53 | 133 | 0.0 | 0.0 | 0.00 | 0.00 | 0.00 | 99 | 1012.9 |
| 20260510121034 | 52 | 120 | 0.0 | 0.0 | 0.00 | 0.00 | 0.00 | 99 | 1013.0 |
| 20260510120532 | 52 | 123 | 0.0 | 0.0 | 0.00 | 0.00 | 0.00 | 99 | 1013.0 |
| 20260510120027 | 52 | 126 | 0.0 | 0.0 | 0.00 | 0.00 | 0.00 | 99 | 1013.0 |
| 20260510115524 | 52 | 129 | 0.0 | 0.0 | 0.00 | 0.00 | 0.00 | 99 | 1013.1 |
| 20260510115021 | 52 | 129 | 0.0 | 0.0 | 0.00 | 0.00 | 0.00 | 99 | 1013.2 |
| 20260510114517 | 52 | 123 | 0.0 | 0.0 | 0.00 | 0.00 | 0.00 | 99 | 1013.0 |
| 20260510114013 | 52 | 123 | 0.0 | 0.0 | 0.00 | 0.00 | 0.00 | 99 | 1013.0 |
| 20260510113508 | 52 | 125 | 0.0 | 0.0 | 0.00 | 0.00 | 0.00 | 99 | 1013.0 |
| 20260510113006 | 52 | 127 | 0.0 | 0.0 | 0.00 | 0.00 | 0.00 | 99 | 1012.6 |
| 20260510112503 | 52 | 134 | 0.0 | 0.0 | 0.00 | 0.00 | 0.00 | 99 | 1012.7 |
| 20260510111959 | 52 | 120 | 0.0 | 0.0 | 0.00 | 0.00 | 0.00 | 99 | 1012.7 |
| 20260510111455 | 52 | 126 | 0.0 | 0.0 | 0.00 | 0.00 | 0.00 | 99 | 1012.6 |
| 20260510110951 | 51 | 123 | 0.0 | 0.0 | 0.00 | 0.00 | 0.00 | 99 | 1012.4 |
| 20260510110448 | 51 | 123 | 0.0 | 0.0 | 0.00 | 0.00 | 0.00 | 99 | 1012.3 |
| 20260510105944 | 51 | 119 | 0.0 | 0.0 | 0.00 | 0.00 | 0.00 | 99 | 1012.4 |
| 20260510105439 | 51 | 111 | 0.0 | 0.0 | 0.00 | 0.00 | 0.00 | 99 | 1012.2 |
| 20260510104934 | 51 | 120 | 0.0 | 0.0 | 0.00 | 0.00 | 0.00 | 99 | 1012.1 |
| 20260510104431 | 51 | 123 | 0.0 | 0.0 | 0.00 | 0.00 | 0.00 | 99 | 1012.2 |
| 20260510103928 | 51 | 125 | 0.0 | 0.0 | 0.00 | 0.00 | 0.00 | 99 | 1012.3 |
| 20260510103425 | 51 | 124 | 0.0 | 0.0 | 0.00 | 0.00 | 0.00 | 99 | 1012.0 |
| 20260510102920 | 51 | 121 | 0.0 | 0.0 | 0.00 | 0.00 | 0.00 | 99 | 1012.3 |
| 20260510102416 | 51 | 126 | 0.0 | 0.0 | 0.00 | 0.00 | 0.00 | 99 | 1012.3 |
| 20260510101914 | 51 | 124 | 0.0 | 0.0 | 0.00 | 0.00 | 0.00 | 99 | 1012.2 |
| 20260510101411 | 51 | 127 | 0.0 | 0.0 | 0.00 | 0.00 | 0.00 | 99 | 1012.3 |
| 20260510100909 | 51 | 126 | 0.0 | 0.0 | 0.00 | 0.00 | 0.00 | 99 | 1012.1 |
| 20260510100406 | 51 | 125 | 0.0 | 0.0 | 0.00 | 0.00 | 0.00 | 99 | 1012.0 |
| 20260510095902 | 51 | 130 | 0.0 | 0.0 | 0.00 | 0.00 | 0.00 | 99 | 1012.0 |
| 20260510095356 | 51 | 128 | 0.0 | 0.0 | 0.00 | 0.00 | 0.00 | 99 | 1012.2 |
| 20260510094856 | 51 | 134 | 0.0 | 0.0 | 0.00 | 0.00 | 0.00 | 99 | 1011.9 |
| 20260510094352 | 51 | 123 | 0.0 | 0.0 | 0.00 | 0.00 | 0.00 | 99 | 1012.0 |
| 20260510093848 | 51 | 128 | 0.0 | 0.0 | 0.00 | 0.00 | 0.00 | 99 | 1012.4 |
| 20260510093344 | 51 | 132 | 0.0 | 0.0 | 0.00 | 0.00 | 0.00 | 99 | 1012.3 |
| 20260510092840 | 51 | 121 | 0.0 | 0.0 | 0.00 | 0.00 | 0.00 | 99 | 1012.4 |
| 20260510092337 | 51 | 128 | 0.0 | 0.0 | 0.00 | 0.00 | 0.00 | 99 | 1012.4 |
| 20260510091832 | 52 | 128 | 0.0 | 0.0 | 0.00 | 0.00 | 0.00 | 99 | 1012.3 |
| 20260510091330 | 52 | 126 | 0.0 | 0.0 | 0.00 | 0.00 | 0.00 | 99 | 1012.2 |
| 20260510090826 | 52 | 136 | 0.0 | 0.0 | 0.00 | 0.00 | 0.00 | 99 | 1012.5 |
| 20260510090323 | 52 | 128 | 0.0 | 0.0 | 0.00 | 0.00 | 0.00 | 99 | 1012.3 |
| 20260510085818 | 52 | 133 | 0.0 | 0.0 | 0.00 | 0.00 | 0.00 | 99 | 1012.4 |
| 20260510085313 | 52 | 123 | 0.0 | 0.0 | 0.00 | 0.00 | 0.00 | 99 | 1012.6 |
| 20260510084809 | 52 | 128 | 0.0 | 0.0 | 0.00 | 0.00 | 0.00 | 99 | 1012.5 |
| 20260510084306 | 52 | 131 | 0.0 | 0.0 | 0.00 | 0.00 | 0.00 | 99 | 1012.5 |
| 20260510083803 | 52 | 145 | 0.9 | 0.9 | 0.00 | 0.00 | 0.00 | 99 | 1012.4 |
| 20260510083300 | 51 | 125 | 0.0 | 0.0 | 0.00 | 0.00 | 0.00 | 99 | 1012.5 |
| 20260510082755 | 51 | 123 | 0.0 | 0.0 | 0.00 | 0.00 | 0.00 | 99 | 1012.6 |
| 20260510082252 | 51 | 120 | 0.0 | 0.0 | 0.00 | 0.00 | 0.00 | 99 | 1012.5 |
| 20260510081750 | 51 | 120 | 0.0 | 0.0 | 0.00 | 0.00 | 0.00 | 99 | 1012.7 |
| 20260510081247 | 51 | 133 | 0.0 | 0.0 | 0.00 | 0.00 | 0.00 | 99 | 1012.5 |
| 20260510080743 | 51 | 87 | 0.0 | 0.9 | 0.00 | 0.00 | 0.00 | 99 | 1012.7 |
| 20260510080238 | 51 | 119 | 0.0 | 0.0 | 0.00 | 0.00 | 0.00 | 99 | 1012.8 |
| 20260510075735 | 51 | 148 | 0.0 | 0.9 | 0.00 | 0.00 | 0.00 | 99 | 1012.5 |
| 20260510075233 | 51 | 35 | 0.0 | 0.0 | 0.00 | 0.00 | 0.00 | 99 | 1012.6 |
| 20260510074730 | 51 | 117 | 0.0 | 0.0 | 0.00 | 0.00 | 0.00 | 99 | 1012.3 |
| 20260510074226 | 51 | 103 | 0.0 | 0.9 | 0.00 | 0.00 | 0.00 | 99 | 1012.0 |
| 20260510073722 | 51 | 125 | 0.0 | 0.0 | 0.00 | 0.00 | 0.00 | 99 | 1011.6 |
| 20260510073218 | 51 | 127 | 0.0 | 0.0 | 0.00 | 0.00 | 0.00 | 99 | 1011.9 |
| 20260510072714 | 51 | 125 | 0.0 | 0.0 | 0.00 | 0.00 | 0.00 | 99 | 1011.6 |
| 20260510072211 | 51 | 127 | 0.0 | 0.0 | 0.00 | 0.00 | 0.00 | 99 | 1011.8 |
| 20260510071708 | 51 | 124 | 0.0 | 0.0 | 0.00 | 0.00 | 0.00 | 99 | 1011.7 |
| 20260510071205 | 51 | 119 | 0.0 | 0.0 | 0.00 | 0.00 | 0.00 | 99 | 1011.7 |
| 20260510070702 | 51 | 122 | 0.0 | 0.0 | 0.00 | 0.00 | 0.00 | 99 | 1011.9 |
| 20260510070159 | 51 | 119 | 0.0 | 0.0 | 0.00 | 0.00 | 0.00 | 99 | 1011.8 |
| 20260510065654 | 51 | 123 | 0.0 | 0.0 | 0.00 | 0.00 | 0.00 | 99 | 1012.0 |
| 20260510065151 | 51 | 120 | 0.0 | 0.0 | 0.00 | 0.00 | 0.00 | 99 | 1012.2 |
| 20260510064647 | 51 | 117 | 0.0 | 0.0 | 0.00 | 0.00 | 0.00 | 99 | 1012.0 |
| 20260510064145 | 51 | 121 | 0.0 | 0.0 | 0.00 | 0.00 | 0.00 | 99 | 1012.0 |
| 20260510063642 | 51 | 122 | 0.0 | 0.0 | 0.00 | 0.00 | 0.00 | 99 | 1012.1 |
| 20260510063138 | 51 | 126 | 0.0 | 0.0 | 0.00 | 0.00 | 0.00 | 99 | 1012.1 |
| 20260510062634 | 51 | 122 | 0.0 | 0.0 | 0.00 | 0.00 | 0.00 | 99 | 1012.3 |
| 20260510062130 | 51 | 121 | 0.0 | 0.0 | 0.00 | 0.00 | 0.00 | 99 | 1012.3 |
| 20260510061626 | 51 | 117 | 0.0 | 0.0 | 0.00 | 0.00 | 0.00 | 99 | 1012.1 |
| 20260510061124 | 51 | 121 | 0.0 | 0.0 | 0.00 | 0.00 | 0.00 | 99 | 1012.2 |
| 20260510060619 | 51 | 120 | 0.0 | 0.0 | 0.00 | 0.00 | 0.00 | 99 | 1012.1 |
| 20260510060116 | 51 | 124 | 0.0 | 0.0 | 0.00 | 0.00 | 0.00 | 99 | 1012.0 |
| 20260510055612 | 51 | 126 | 0.0 | 0.0 | 0.00 | 0.00 | 0.00 | 99 | 1011.8 |
| 20260510055110 | 51 | 127 | 0.0 | 0.0 | 0.00 | 0.00 | 0.00 | 99 | 1012.0 |
| 20260510054606 | 51 | 119 | 0.0 | 0.0 | 0.00 | 0.00 | 0.00 | 99 | 1011.8 |
| 20260510054101 | 51 | 123 | 0.0 | 0.0 | 0.00 | 0.00 | 0.00 | 99 | 1011.7 |
| 20260510053601 | 51 | 121 | 0.0 | 0.0 | 0.00 | 0.00 | 0.00 | 99 | 1011.8 |
| 20260510053058 | 51 | 122 | 0.0 | 0.0 | 0.00 | 0.00 | 0.00 | 99 | 1011.9 |
| 20260510052554 | 51 | 122 | 0.0 | 0.0 | 0.00 | 0.00 | 0.00 | 99 | 1011.8 |
| 20260510052050 | 51 | 118 | 0.0 | 0.0 | 0.00 | 0.00 | 0.00 | 99 | 1012.0 |
| 20260510051546 | 51 | 123 | 0.0 | 0.0 | 0.00 | 0.00 | 0.00 | 99 | 1011.7 |
| 20260510051042 | 51 | 121 | 0.0 | 0.0 | 0.00 | 0.00 | 0.00 | 99 | 1011.9 |
| 20260510050539 | 51 | 121 | 0.0 | 0.0 | 0.00 | 0.00 | 0.00 | 99 | 1011.9 |
| 20260510050036 | 51 | 124 | 0.0 | 0.0 | 0.00 | 0.00 | 0.00 | 99 | 1011.9 |
| 20260510045534 | 51 | 122 | 0.0 | 0.0 | 0.00 | 0.00 | 0.00 | 99 | 1012.0 |
| 20260510045029 | 51 | 122 | 0.0 | 0.0 | 0.00 | 0.00 | 0.00 | 99 | 1011.6 |
| 20260510044526 | 51 | 122 | 0.0 | 0.0 | 0.00 | 0.00 | 0.00 | 99 | 1012.0 |
| 20260510044024 | 51 | 122 | 0.0 | 0.0 | 0.00 | 0.00 | 0.00 | 99 | 1011.9 |
| 20260510043520 | 51 | 121 | 0.0 | 0.0 | 0.00 | 0.00 | 0.00 | 99 | 1012.0 |
| 20260510043014 | 51 | 128 | 0.0 | 0.0 | 0.00 | 0.00 | 0.00 | 99 | 1011.8 |
| 20260510042509 | 51 | 123 | 0.0 | 0.0 | 0.00 | 0.00 | 0.00 | 99 | 1011.8 |
| 20260510042005 | 52 | 125 | 0.0 | 0.0 | 0.00 | 0.00 | 0.00 | 99 | 1011.9 |
| 20260510041502 | 52 | 126 | 0.0 | 0.0 | 0.00 | 0.00 | 0.00 | 99 | 1011.9 |
| 20260510041000 | 52 | 131 | 0.0 | 0.0 | 0.00 | 0.00 | 0.00 | 99 | 1012.1 |
| 20260510040456 | 52 | 124 | 0.0 | 0.0 | 0.00 | 0.00 | 0.00 | 99 | 1012.0 |
| 20260510035952 | 52 | 123 | 0.0 | 0.0 | 0.00 | 0.50 | 0.50 | 99 | 1011.9 |
| 20260510035449 | 52 | 116 | 0.0 | 0.0 | 0.00 | 0.50 | 0.50 | 99 | 1011.7 |
| 20260510034948 | 52 | 121 | 0.0 | 0.0 | 0.00 | 0.50 | 0.50 | 99 | 1011.8 |
| 20260510034447 | 52 | 127 | 0.0 | 0.0 | 0.00 | 0.50 | 0.50 | 99 | 1011.5 |
| 20260510033943 | 52 | 120 | 0.0 | 0.0 | 0.00 | 0.50 | 0.50 | 99 | 1011.3 |
| 20260510033438 | 52 | 120 | 0.0 | 0.0 | 0.00 | 0.50 | 0.50 | 99 | 1011.3 |
| 20260510032936 | 52 | 120 | 0.0 | 0.0 | 0.00 | 0.50 | 0.50 | 99 | 1011.5 |
| 20260510032433 | 52 | 122 | 0.0 | 0.0 | 0.00 | 0.50 | 0.50 | 99 | 1011.5 |
| 20260510031928 | 52 | 121 | 0.0 | 0.0 | 0.00 | 0.50 | 0.50 | 99 | 1011.6 |
| 20260510031424 | 52 | 120 | 0.0 | 0.0 | 0.00 | 0.50 | 0.50 | 99 | 1011.5 |
| 20260510030919 | 52 | 117 | 0.0 | 0.0 | 0.00 | 0.50 | 0.50 | 99 | 1011.7 |
| 20260510030415 | 52 | 122 | 0.0 | 0.0 | 0.00 | 0.50 | 0.50 | 99 | 1011.6 |
| 20260510025913 | 52 | 125 | 0.0 | 0.0 | 0.00 | 0.50 | 0.50 | 99 | 1011.6 |
| 20260510025410 | 52 | 121 | 0.0 | 0.0 | 0.00 | 0.50 | 0.50 | 99 | 1012.0 |
| 20260510024908 | 52 | 122 | 0.0 | 0.0 | 0.00 | 0.50 | 0.50 | 99 | 1011.8 |
| 20260510024404 | 52 | 125 | 0.0 | 0.0 | 0.00 | 0.50 | 0.50 | 99 | 1011.9 |
| 20260510023900 | 52 | 123 | 0.0 | 0.0 | 0.00 | 0.50 | 0.50 | 99 | 1012.1 |
| 20260510023356 | 51 | 124 | 0.0 | 0.0 | 0.00 | 0.50 | 0.50 | 99 | 1012.0 |
| 20260510022854 | 51 | 124 | 0.0 | 0.0 | 0.00 | 0.50 | 0.50 | 99 | 1012.0 |
| 20260510022353 | 51 | 122 | 0.0 | 0.0 | 0.00 | 0.50 | 0.50 | 99 | 1011.8 |
| 20260510021852 | 51 | 124 | 0.0 | 0.0 | 0.00 | 0.50 | 0.50 | 99 | 1011.6 |
| 20260510021350 | 51 | 125 | 0.0 | 0.0 | 0.00 | 0.50 | 0.50 | 99 | 1011.7 |
| 20260510020846 | 51 | 121 | 0.0 | 0.0 | 0.00 | 0.50 | 0.50 | 99 | 1011.7 |
| 20260510020346 | 51 | 122 | 0.0 | 0.0 | 0.00 | 0.50 | 0.50 | 99 | 1011.7 |
| 20260510015842 | 51 | 121 | 0.0 | 0.0 | 0.00 | 0.50 | 0.50 | 99 | 1011.9 |
| 20260510015338 | 51 | 124 | 0.0 | 0.0 | 0.00 | 0.50 | 0.50 | 99 | 1011.9 |
| 20260510014834 | 51 | 123 | 0.0 | 0.0 | 0.00 | 0.50 | 0.50 | 99 | 1011.9 |
| 20260510014331 | 51 | 122 | 0.0 | 0.0 | 0.00 | 0.50 | 0.50 | 99 | 1011.5 |
| 20260510013827 | 50 | 121 | 0.0 | 0.0 | 0.00 | 0.50 | 0.50 | 99 | 1011.5 |
| 20260510013323 | 50 | 124 | 0.0 | 0.0 | 0.00 | 0.50 | 0.50 | 99 | 1011.5 |
| 20260510012818 | 50 | 125 | 0.0 | 0.0 | 0.00 | 0.50 | 0.50 | 99 | 1011.5 |
| 20260510012318 | 51 | 124 | 0.0 | 0.0 | 0.00 | 0.50 | 0.50 | 99 | 1011.5 |
| 20260510011813 | 51 | 119 | 0.0 | 0.0 | 0.00 | 0.50 | 0.50 | 99 | 1011.1 |
| 20260510011308 | 51 | 126 | 0.0 | 0.0 | 0.00 | 0.50 | 0.50 | 99 | 1011.0 |
| 20260510010805 | 50 | 127 | 0.0 | 0.0 | 0.00 | 0.50 | 0.50 | 99 | 1011.1 |
| 20260510010302 | 50 | 122 | 0.0 | 0.0 | 0.00 | 0.50 | 0.50 | 99 | 1011.1 |
| 20260510005759 | 51 | 121 | 0.0 | 0.0 | 0.00 | 0.50 | 0.50 | 99 | 1011.0 |
| 20260510005255 | 51 | 122 | 0.0 | 0.0 | 0.00 | 0.50 | 0.50 | 99 | 1010.8 |
| 20260510004753 | 51 | 121 | 0.0 | 0.0 | 0.00 | 0.50 | 0.50 | 99 | 1010.9 |
| 20260510004251 | 51 | 126 | 0.0 | 0.0 | 0.00 | 0.50 | 0.50 | 99 | 1011.1 |
| 20260510003748 | 51 | 125 | 0.0 | 0.0 | 0.00 | 0.50 | 0.50 | 99 | 1010.9 |
| 20260510003244 | 52 | 125 | 0.0 | 0.0 | 0.00 | 0.50 | 0.50 | 99 | 1011.1 |
| 20260510002743 | 52 | 122 | 0.0 | 0.0 | 0.00 | 0.50 | 0.50 | 99 | 1011.1 |
| 20260510002241 | 52 | 127 | 0.0 | 0.0 | 0.00 | 0.50 | 0.50 | 99 | 1011.0 |
| 20260510001738 | 52 | 121 | 0.0 | 0.0 | 0.00 | 0.50 | 0.50 | 99 | 1011.1 |
| 20260510001236 | 53 | 120 | 0.0 | 0.0 | 0.00 | 0.50 | 0.50 | 99 | 1011.3 |
| 20260510000731 | 53 | 121 | 0.0 | 0.0 | 0.00 | 0.50 | 0.50 | 99 | 1011.0 |
| 20260510000229 | 53 | 122 | 0.0 | 0.0 | 0.00 | 0.50 | 0.50 | 99 | 1010.6 |
| 20260509235725 | 53 | 127 | 0.0 | 0.0 | 0.00 | 0.50 | 0.50 | 99 | 1010.7 |
| 20260509235222 | 53 | 123 | 0.0 | 0.0 | 0.00 | 0.50 | 0.50 | 99 | 1010.9 |
| 20260509234718 | 53 | 123 | 0.0 | 0.0 | 0.00 | 0.50 | 0.50 | 99 | 1010.7 |
| 20260509234215 | 53 | 125 | 0.0 | 0.0 | 0.00 | 0.50 | 0.50 | 99 | 1010.8 |
| 20260509233713 | 54 | 121 | 0.0 | 0.0 | 0.00 | 0.50 | 0.50 | 99 | 1010.6 |
| 20260509233211 | 54 | 127 | 0.0 | 0.0 | 0.00 | 0.50 | 0.50 | 99 | 1010.5 |
| 20260509232707 | 54 | 129 | 0.0 | 0.0 | 0.00 | 0.50 | 0.50 | 99 | 1010.7 |
| 20260509232204 | 54 | 124 | 0.0 | 0.0 | 0.00 | 0.50 | 0.50 | 99 | 1010.8 |
| 20260509231700 | 54 | 128 | 0.0 | 0.0 | 0.00 | 0.50 | 0.50 | 99 | 1010.8 |
| 20260509231158 | 54 | 122 | 0.0 | 0.0 | 0.00 | 0.50 | 0.50 | 99 | 1010.9 |
| 20260509230655 | 54 | 123 | 0.0 | 0.0 | 0.00 | 0.50 | 0.50 | 99 | 1011.1 |
| 20260509230151 | 54 | 122 | 0.0 | 0.0 | 0.00 | 0.50 | 0.50 | 99 | 1010.9 |
| 20260509225647 | 54 | 127 | 0.0 | 0.0 | 0.00 | 0.50 | 0.50 | 99 | 1010.8 |
| 20260509225143 | 54 | 123 | 0.0 | 0.0 | 0.00 | 0.50 | 0.50 | 99 | 1010.8 |
| 20260509224639 | 54 | 127 | 0.0 | 0.0 | 0.00 | 0.50 | 0.50 | 99 | 1010.7 |
| 20260509224136 | 54 | 118 | 0.0 | 0.0 | 0.00 | 0.50 | 0.50 | 99 | 1010.8 |
| 20260509223632 | 54 | 130 | 0.0 | 0.0 | 0.00 | 0.50 | 0.50 | 99 | 1011.0 |
| 20260509223130 | 54 | 132 | 0.0 | 0.0 | 0.00 | 0.50 | 0.50 | 99 | 1011.0 |
| 20260509222626 | 54 | 123 | 0.0 | 0.0 | 0.00 | 0.50 | 0.50 | 99 | 1010.9 |
| 20260509222122 | 54 | 126 | 0.0 | 0.0 | 0.00 | 0.50 | 0.50 | 99 | 1011.1 |
| 20260509221618 | 54 | 127 | 0.0 | 0.0 | 0.00 | 0.50 | 0.50 | 99 | 1011.3 |
| 20260509221114 | 54 | 127 | 0.0 | 0.0 | 0.07 | 0.50 | 0.50 | 99 | 1011.1 |
| 20260509220610 | 53 | 120 | 0.0 | 0.0 | 0.14 | 0.50 | 0.50 | 99 | 1011.1 |
| 20260509220107 | 54 | 122 | 0.0 | 0.0 | 0.12 | 0.49 | 0.49 | 99 | 1011.1 |
| 20260509215602 | 53 | 124 | 0.0 | 0.0 | 0.24 | 0.48 | 0.48 | 99 | 1011.1 |
| 20260509215100 | 53 | 132 | 0.0 | 0.0 | 0.31 | 0.47 | 0.47 | 99 | 1011.6 |
| 20260509214556 | 54 | 140 | 0.0 | 0.0 | 0.31 | 0.43 | 0.43 | 99 | 1011.7 |
| 20260509214053 | 53 | 126 | 0.0 | 0.0 | 0.31 | 0.41 | 0.41 | 99 | 1011.6 |
| 20260509213549 | 54 | 116 | 0.0 | 0.0 | 0.19 | 0.38 | 0.38 | 99 | 1011.8 |
| 20260509213046 | 54 | 113 | 0.0 | 0.0 | 0.19 | 0.36 | 0.36 | 99 | 1011.5 |
| 20260509212543 | 54 | 127 | 0.0 | 0.0 | 0.35 | 0.35 | 0.35 | 99 | 1011.2 |
| 20260509212041 | 54 | 123 | 0.0 | 0.0 | 0.19 | 0.32 | 0.32 | 99 | 1011.5 |
| 20260509211536 | 54 | 121 | 0.0 | 0.0 | 0.12 | 0.29 | 0.29 | 99 | 1011.5 |
| 20260509211033 | 54 | 120 | 0.0 | 0.0 | 0.17 | 0.29 | 0.29 | 99 | 1011.1 |
| 20260509210530 | 54 | 125 | 0.0 | 0.0 | 0.19 | 0.27 | 0.27 | 99 | 1011.7 |
| 20260509210026 | 54 | 126 | 0.0 | 0.0 | 0.19 | 0.25 | 0.25 | 99 | 1011.5 |
| 20260509205520 | 54 | 125 | 0.0 | 0.0 | 0.12 | 0.23 | 0.23 | 99 | 1011.8 |
| 20260509205016 | 55 | 128 | 0.0 | 0.0 | 0.17 | 0.22 | 0.22 | 99 | 1011.8 |
| 20260509204513 | 55 | 129 | 0.0 | 0.0 | 0.19 | 0.21 | 0.21 | 98 | 1011.8 |
| 20260509204009 | 55 | 126 | 0.0 | 0.0 | 0.12 | 0.18 | 0.18 | 98 | 1012.2 |
| 20260509203504 | 55 | 119 | 0.0 | 0.0 | 0.07 | 0.17 | 0.17 | 98 | 1012.3 |
| 20260509203003 | 55 | 134 | 0.0 | 0.0 | 0.05 | 0.16 | 0.16 | 97 | 1012.0 |